Time;durP1;ratioP1;P1;durP2;ratioP2;P2;SDS_P1;SDS_P2;PMS_P1;PMS_P2;Temp;Humidity;BMP_temperature;BMP_pressure;BME280_temperature;BME280_humidity;BME280_pressure;Samples;Min_cycle;Max_cycle;Signal;HPM_P1;HPM_P2
2022/07/10 00:00:53;;;;;;;;;;;;;;;16.97;55.04;100326.16;1472449;88;20487;-80
2022/07/10 00:03:19;;;;;;;;;;;;;;;17.01;53.82;100319.94;1464057;88;20327;-80
2022/07/10 00:05:45;;;;;;;;;;;;;;;17.00;54.34;100323.10;1469228;88;20275;-80
2022/07/10 00:08:11;;;;;;;;;;;;;;;17.04;53.60;100323.56;1477116;88;20354;-79
2022/07/10 00:10:37;;;;;;;;;;;;;;;17.06;53.53;100312.15;1471578;88;20288;-79
2022/07/10 00:13:03;;;;;;;;;;;;;;;17.07;53.41;100315.16;1481029;88;20514;-80
2022/07/10 00:15:31;;;;;;;;;;;;;;;17.06;53.37;100313.00;1475447;88;20283;-79
2022/07/10 00:17:57;;;;;;;;;;;;;;;17.04;53.24;100307.53;1473017;88;20377;-79
2022/07/10 00:20:22;;;;;;;;;;;;;;;17.02;52.84;100299.69;1480830;88;20900;-80
2022/07/10 00:22:48;;;;;;;;;;;;;;;17.00;53.15;100306.23;1468459;88;20283;-79
2022/07/10 00:25:15;;;;;;;;;;;;;;;16.99;53.08;100309.43;1473639;88;20296;-80
2022/07/10 00:27:42;;;;;;;;;;;;;;;16.96;53.07;100304.47;1401946;91;20826;-80
2022/07/10 00:30:10;;;;;;;;;;;;;;;16.94;53.56;100301.66;1424048;90;20333;-79
2022/07/10 00:32:37;;;;;;;;;;;;;;;16.94;53.45;100297.14;1429518;90;20393;-79
2022/07/10 00:35:04;;;;;;;;;;;;;;;16.97;53.39;100296.75;1411811;92;20259;-79
2022/07/10 00:37:29;;;;;;;;;;;;;;;16.97;53.68;100287.39;1511290;91;20353;-79
2022/07/10 00:39:56;;;;;;;;;;;;;;;16.96;53.75;100286.27;1506727;90;20303;-79
2022/07/10 00:42:22;;;;;;;;;;;;;;;16.98;53.45;100280.23;1470400;90;20286;-79
2022/07/10 00:44:47;;;;;;;;;;;;;;;16.96;53.76;100283.59;1509662;90;20242;-79
2022/07/10 00:47:17;;;;;;;;;;;;;;;16.92;53.71;100280.48;1421453;91;20315;-79
2022/07/10 00:49:41;;;;;;;;;;;;;;;16.91;54.57;100272.95;1433972;90;20397;-79
2022/07/10 00:52:10;;;;;;;;;;;;;;;16.91;54.04;100268.13;1443289;90;20871;-80
2022/07/10 00:54:36;;;;;;;;;;;;;;;16.90;54.54;100272.65;1436072;90;20287;-80
2022/07/10 00:57:05;;;;;;;;;;;;;;;16.87;54.85;100270.87;1442689;90;20494;-80
2022/07/10 00:59:31;;;;;;;;;;;;;;;16.87;54.37;100266.87;1432378;89;20295;-79
2022/07/10 01:01:57;;;;;;;;;;;;;;;16.87;54.27;100262.86;1442540;90;20345;-80
2022/07/10 01:04:24;;;;;;;;;;;;;;;16.86;54.77;100261.19;1436267;89;20551;-80
2022/07/10 01:06:52;;;;;;;;;;;;;;;16.85;54.93;100264.89;1455052;89;20270;-80
2022/07/10 01:09:22;;;;;;;;;;;;;;;16.85;54.99;100269.72;1437054;89;20302;-78
2022/07/10 01:11:48;;;;;;;;;;;;;;;16.85;54.64;100263.55;1432130;90;20316;-78
2022/07/10 01:14:16;;;;;;;;;;;;;;;16.83;55.29;100263.76;1435790;89;20284;-80
2022/07/10 01:16:43;;;;;;;;;;;;;;;16.84;54.74;100261.91;1438031;90;20330;-79
2022/07/10 01:19:09;;;;;;;;;;;;;;;16.82;54.82;100251.91;1436454;90;20351;-80
2022/07/10 01:21:37;;;;;;;;;;;;;;;16.79;54.65;100257.64;1445410;89;20338;-79
2022/07/10 01:24:08;;;;;;;;;;;;;;;16.75;54.94;100259.03;1436847;90;20272;-79
2022/07/10 01:26:35;;;;;;;;;;;;;;;16.75;55.13;100263.04;1450606;89;20313;-79
2022/07/10 01:29:07;;;;;;;;;;;;;;;16.75;55.98;100260.36;1435667;89;20504;-79
2022/07/10 01:31:34;;;;;;;;;;;;;;;16.73;55.42;100261.05;1425619;91;20330;-79
2022/07/10 01:34:02;;;;;;;;;;;;;;;16.74;55.14;100260.03;1441281;90;21153;-79
2022/07/10 01:36:32;;;;;;;;;;;;;;;16.73;54.86;100254.37;1433709;91;20499;-79
2022/07/10 01:38:58;;;;;;;;;;;;;;;16.74;55.12;100256.02;1420601;91;20953;-79
2022/07/10 01:41:25;;;;;;;;;;;;;;;16.72;55.24;100249.55;1441562;90;20587;-79
2022/07/10 01:43:52;;;;;;;;;;;;;;;16.72;55.30;100247.39;1440034;90;20435;-79
2022/07/10 01:46:18;;;;;;;;;;;;;;;16.71;55.69;100254.55;1443890;90;20842;-79
2022/07/10 01:48:44;;;;;;;;;;;;;;;16.67;55.29;100246.10;1439165;91;20548;-79
2022/07/10 01:51:11;;;;;;;;;;;;;;;16.68;55.40;100246.41;1439487;90;20235;-79
2022/07/10 01:53:37;;;;;;;;;;;;;;;16.68;55.15;100246.41;1446185;90;20294;-79
2022/07/10 01:56:08;;;;;;;;;;;;;;;16.70;55.36;100240.37;1449451;90;20992;-79
2022/07/10 01:58:34;;;;;;;;;;;;;;;16.73;55.16;100241.02;1443855;90;20278;-80
2022/07/10 02:01:01;;;;;;;;;;;;;;;16.75;55.14;100234.98;1448288;90;20308;-79
2022/07/10 02:06:11;;;;;;;;;;;;;;;16.70;54.94;100236.36;1436893;90;20300;-80
2022/07/10 02:08:37;;;;;;;;;;;;;;;16.75;54.74;100236.31;1426427;90;20368;-79
2022/07/10 02:11:03;;;;;;;;;;;;;;;16.76;54.77;100233.95;1430608;91;20295;-79
2022/07/10 02:13:29;;;;;;;;;;;;;;;16.77;54.52;100231.09;1427364;91;20396;-79
2022/07/10 02:15:55;;;;;;;;;;;;;;;16.79;54.48;100232.25;1409333;91;20286;-79
2022/07/10 02:18:22;;;;;;;;;;;;;;;16.79;54.24;100225.05;1432481;90;20278;-79
2022/07/10 02:20:48;;;;;;;;;;;;;;;16.79;54.26;100229.58;1413727;91;20407;-79
2022/07/10 02:23:14;;;;;;;;;;;;;;;16.78;54.19;100230.61;1434039;90;20340;-80
2022/07/10 02:25:40;;;;;;;;;;;;;;;16.78;54.29;100226.61;1427830;91;20270;-79
2022/07/10 02:28:08;;;;;;;;;;;;;;;16.77;54.04;100228.94;1427380;91;21106;-79
2022/07/10 02:30:34;;;;;;;;;;;;;;;16.80;53.64;100236.09;1421291;91;20445;-79
2022/07/10 02:33:00;;;;;;;;;;;;;;;16.84;53.68;100229.32;1423013;91;20394;-79
2022/07/10 02:35:26;;;;;;;;;;;;;;;16.87;53.29;100225.44;1433275;91;20296;-79
2022/07/10 02:37:52;;;;;;;;;;;;;;;16.91;53.06;100234.20;1425886;90;20316;-79
2022/07/10 02:40:18;;;;;;;;;;;;;;;16.97;52.85;100232.59;1422837;91;20365;-80
2022/07/10 02:42:44;;;;;;;;;;;;;;;17.00;52.64;100226.86;1424600;91;20292;-79
2022/07/10 02:45:10;;;;;;;;;;;;;;;17.02;52.38;100232.84;1437118;91;20322;-80
2022/07/10 02:47:36;;;;;;;;;;;;;;;17.03;52.65;100229.17;1419920;91;20362;-80
2022/07/10 02:50:02;;;;;;;;;;;;;;;17.04;52.31;100226.80;1423981;91;20861;-79
2022/07/10 02:52:30;;;;;;;;;;;;;;;17.06;52.44;100231.45;1423314;91;20884;-79
2022/07/10 02:54:56;;;;;;;;;;;;;;;17.08;52.46;100230.73;1436505;90;21159;-79
2022/07/10 02:57:22;;;;;;;;;;;;;;;17.11;52.32;100234.34;1438950;91;20308;-79
2022/07/10 02:59:48;;;;;;;;;;;;;;;17.12;52.00;100238.69;1426506;90;20382;-80
2022/07/10 03:02:14;;;;;;;;;;;;;;;17.10;52.24;100234.56;1427700;91;20331;-79
2022/07/10 03:04:40;;;;;;;;;;;;;;;17.12;52.14;100239.20;1444780;91;20315;-79
2022/07/10 03:07:06;;;;;;;;;;;;;;;17.13;52.45;100240.34;1428952;91;21475;-79
2022/07/10 03:09:32;;;;;;;;;;;;;;;17.12;52.83;100238.69;1422294;91;20280;-80
2022/07/10 03:11:58;;;;;;;;;;;;;;;17.15;52.94;100237.48;1432017;91;20858;-80
2022/07/10 03:14:23;;;;;;;;;;;;;;;17.19;52.85;100235.23;1415374;90;20296;-80
2022/07/10 03:16:49;;;;;;;;;;;;;;;17.20;53.04;100229.67;1433433;90;20292;-80
2022/07/10 03:19:15;;;;;;;;;;;;;;;17.20;53.07;100228.34;1440125;90;20414;-80
2022/07/10 03:21:41;;;;;;;;;;;;;;;17.18;53.40;100229.58;1435593;91;20348;-80
2022/07/10 03:24:07;;;;;;;;;;;;;;;17.12;54.16;100228.52;1425653;91;21727;-80
2022/07/10 03:26:33;;;;;;;;;;;;;;;17.09;54.24;100227.05;1425820;90;20456;-79
2022/07/10 03:28:59;;;;;;;;;;;;;;;17.08;54.83;100228.05;1431702;90;20278;-79
2022/07/10 03:31:25;;;;;;;;;;;;;;;17.06;55.29;100228.78;1425974;90;20846;-79
2022/07/10 03:33:52;;;;;;;;;;;;;;;17.03;56.68;100234.52;1439180;90;20227;-79
2022/07/10 03:36:19;;;;;;;;;;;;;;;17.01;56.63;100235.22;1429786;90;20415;-80
2022/07/10 03:38:46;;;;;;;;;;;;;;;16.97;57.09;100239.80;1429758;90;20308;-80
2022/07/10 03:41:13;;;;;;;;;;;;;;;16.97;56.68;100239.28;1442115;90;20322;-79
2022/07/10 03:43:39;;;;;;;;;;;;;;;16.95;56.76;100243.20;1436460;90;20318;-80
2022/07/10 03:46:05;;;;;;;;;;;;;;;16.94;56.85;100245.53;1429965;90;20406;-79
2022/07/10 03:48:33;;;;;;;;;;;;;;;16.93;57.39;100239.88;1442757;90;20820;-80
2022/07/10 03:50:59;;;;;;;;;;;;;;;16.94;57.26;100241.52;1428322;90;20435;-80
2022/07/10 03:53:25;;;;;;;;;;;;;;;16.89;57.82;100240.27;1432443;90;20436;-80
2022/07/10 03:55:51;;;;;;;;;;;;;;;16.92;57.59;100243.06;1443616;90;20284;-79
2022/07/10 03:58:17;;;;;;;;;;;;;;;16.92;57.37;100241.73;1434325;90;20347;-79
2022/07/10 04:00:43;;;;;;;;;;;;;;;16.93;58.46;100234.02;1440076;90;20324;-80
2022/07/10 04:03:11;;;;;;;;;;;;;;;16.94;59.33;100232.16;1435572;90;21028;-80
2022/07/10 04:05:37;;;;;;;;;;;;;;;16.93;58.98;100230.52;1449157;90;20315;-79
2022/07/10 04:08:04;;;;;;;;;;;;;;;16.90;58.76;100233.06;1433495;90;20323;-80
2022/07/10 04:10:31;;;;;;;;;;;;;;;16.89;57.89;100230.91;1431393;90;20918;-80
2022/07/10 04:12:57;;;;;;;;;;;;;;;16.92;58.08;100231.03;1447031;90;20278;-79
2022/07/10 04:15:23;;;;;;;;;;;;;;;16.96;59.67;100222.94;1449560;90;20743;-79
2022/07/10 04:17:50;;;;;;;;;;;;;;;16.99;58.31;100223.87;1435101;90;20299;-79
2022/07/10 04:20:17;;;;;;;;;;;;;;;17.05;59.00;100219.09;1430543;90;20325;-80
2022/07/10 04:22:44;;;;;;;;;;;;;;;17.11;58.01;100218.82;1446443;89;20823;-79
2022/07/10 04:25:10;;;;;;;;;;;;;;;17.17;57.81;100213.20;1437267;89;20376;-79
2022/07/10 04:27:36;;;;;;;;;;;;;;;17.23;58.49;100219.09;1439024;89;20383;-79
2022/07/10 04:30:04;;;;;;;;;;;;;;;17.28;58.17;100216.67;1437614;89;20405;-80
2022/07/10 04:32:30;;;;;;;;;;;;;;;17.33;59.19;100220.92;1455336;89;20330;-78
2022/07/10 04:34:55;;;;;;;;;;;;;;;17.34;57.84;100215.36;1419246;89;20278;-79
2022/07/10 04:37:22;;;;;;;;;;;;;;;17.38;57.72;100213.14;1443031;89;20316;-79
2022/07/10 04:39:48;;;;;;;;;;;;;;;17.38;57.36;100214.48;1447067;89;20352;-79
2022/07/10 04:42:14;;;;;;;;;;;;;;;17.43;57.10;100210.67;1459036;89;20307;-79
2022/07/10 04:44:40;;;;;;;;;;;;;;;17.45;57.53;100206.48;1457043;89;20278;-78
2022/07/10 04:47:06;;;;;;;;;;;;;;;17.45;57.29;100211.31;1452631;89;20309;-79
2022/07/10 04:49:33;;;;;;;;;;;;;;;17.42;57.92;100214.39;1441199;89;20299;-78
2022/07/10 04:51:59;;;;;;;;;;;;;;;17.43;57.62;100215.20;1461325;89;20315;-79
2022/07/10 04:54:25;;;;;;;;;;;;;;;17.39;57.83;100206.76;1451242;89;20398;-79
2022/07/10 04:56:51;;;;;;;;;;;;;;;17.40;58.26;100209.73;1451605;89;20245;-80
2022/07/10 04:59:17;;;;;;;;;;;;;;;17.37;58.56;100208.80;1447177;89;20351;-79
2022/07/10 05:01:43;;;;;;;;;;;;;;;17.38;58.28;100206.45;1458645;89;20300;-79
2022/07/10 05:04:09;;;;;;;;;;;;;;;17.37;58.40;100208.28;1443506;89;20384;-79
2022/07/10 05:06:35;;;;;;;;;;;;;;;17.38;58.29;100210.47;1450953;89;20975;-80
2022/07/10 05:09:01;;;;;;;;;;;;;;;17.43;58.21;100205.33;1456508;89;20574;-79
2022/07/10 05:11:28;;;;;;;;;;;;;;;17.50;58.07;100204.87;1450526;89;20278;-80
2022/07/10 05:13:53;;;;;;;;;;;;;;;17.66;58.26;100203.69;1460163;89;20350;-80
2022/07/10 05:16:19;;;;;;;;;;;;;;;17.77;56.90;100200.96;1439732;89;21081;-79
2022/07/10 05:18:46;;;;;;;;;;;;;;;17.95;56.86;100201.28;1454865;89;20336;-81
2022/07/10 05:21:12;;;;;;;;;;;;;;;18.09;56.57;100195.42;1438141;89;20942;-82
2022/07/10 05:23:38;;;;;;;;;;;;;;;18.24;55.58;100196.59;1438949;89;20314;-81
2022/07/10 05:26:05;;;;;;;;;;;;;;;18.38;54.74;100192.90;1439537;90;20266;-80
2022/07/10 05:28:31;;;;;;;;;;;;;;;18.56;54.55;100195.00;1427503;90;20280;-80
2022/07/10 05:30:57;;;;;;;;;;;;;;;18.67;52.68;100193.54;1429665;89;20308;-79
2022/07/10 05:33:23;;;;;;;;;;;;;;;18.76;52.04;100188.83;1443174;89;20251;-80
2022/07/10 05:35:49;;;;;;;;;;;;;;;18.91;52.60;100190.80;1436910;90;20418;-80
2022/07/10 05:38:17;;;;;;;;;;;;;;;19.06;52.05;100186.54;1415694;91;20310;-80
2022/07/10 05:40:43;;;;;;;;;;;;;;;19.22;52.64;100192.81;1428240;90;20590;-80
2022/07/10 05:43:10;;;;;;;;;;;;;;;19.36;52.16;100186.37;1433612;90;20259;-80
2022/07/10 05:45:36;;;;;;;;;;;;;;;19.44;50.46;100189.84;1436887;90;20292;-80
2022/07/10 05:48:03;;;;;;;;;;;;;;;19.56;49.34;100190.34;1433402;89;20295;-80
2022/07/10 05:50:28;;;;;;;;;;;;;;;19.67;48.23;100182.15;1446198;90;20316;-80
2022/07/10 05:52:54;;;;;;;;;;;;;;;19.75;48.50;100181.91;1449638;90;20769;-80
2022/07/10 05:55:20;;;;;;;;;;;;;;;19.84;47.91;100177.12;1437972;90;20384;-80
2022/07/10 05:57:46;;;;;;;;;;;;;;;19.93;47.19;100180.38;1432022;90;20295;-80
2022/07/10 06:00:12;;;;;;;;;;;;;;;19.90;46.84;100184.84;1430543;90;20204;-80
2022/07/10 06:02:38;;;;;;;;;;;;;;;20.03;47.00;100175.38;1444396;89;20292;-80
2022/07/10 06:05:05;;;;;;;;;;;;;;;20.17;47.19;100179.63;1443108;90;20281;-80
2022/07/10 06:07:31;;;;;;;;;;;;;;;20.25;46.84;100174.00;1438770;90;20333;-80
2022/07/10 06:09:57;;;;;;;;;;;;;;;20.20;46.65;100179.20;1439844;89;20387;-80
2022/07/10 06:12:23;;;;;;;;;;;;;;;20.37;47.17;100177.30;1434585;90;20318;-80
2022/07/10 06:14:49;;;;;;;;;;;;;;;20.46;46.41;100186.25;1436522;90;20273;-81
2022/07/10 06:17:15;;;;;;;;;;;;;;;20.47;46.33;100187.06;1434743;89;20280;-80
2022/07/10 06:19:41;;;;;;;;;;;;;;;20.60;46.52;100177.59;1434100;90;20353;-81
2022/07/10 06:24:51;;;;;;;;;;;;;;;20.77;46.07;100176.49;1442047;90;20444;-81
2022/07/10 06:27:17;;;;;;;;;;;;;;;20.86;46.04;100181.92;1437185;89;20292;-79
2022/07/10 06:29:43;;;;;;;;;;;;;;;20.86;44.84;100183.76;1440101;90;20510;-79
2022/07/10 06:32:09;;;;;;;;;;;;;;;20.96;45.06;100184.09;1410070;91;20383;-79
2022/07/10 06:34:35;;;;;;;;;;;;;;;20.98;44.78;100179.84;1414124;91;20259;-79
2022/07/10 06:37:01;;;;;;;;;;;;;;;21.16;45.02;100183.37;1421193;90;20294;-80
2022/07/10 06:39:29;;;;;;;;;;;;;;;20.99;42.69;100177.45;1442513;90;20317;-80
2022/07/10 06:41:55;;;;;;;;;;;;;;;21.01;43.56;100183.44;1436875;90;20867;-79
2022/07/10 06:44:22;;;;;;;;;;;;;;;21.07;43.77;100183.36;1435358;90;20300;-79
2022/07/10 06:47:55;;;;;;;;;;;;;;;21.01;42.82;100179.41;1430385;90;20750;-79
2022/07/10 06:49:15;;;;;;;;;;;;;;;21.21;43.70;100184.05;1427758;90;20564;-79
2022/07/10 06:51:41;;;;;;;;;;;;;;;21.36;41.88;100183.68;1442016;90;20355;-79
2022/07/10 06:54:08;;;;;;;;;;;;;;;21.44;41.38;100184.77;1442485;90;20330;-79
2022/07/10 06:56:34;;;;;;;;;;;;;;;21.51;42.44;100184.15;1432251;90;20943;-80
2022/07/10 06:58:59;;;;;;;;;;;;;;;21.71;42.42;100188.47;1438630;90;20259;-79
2022/07/10 07:01:25;;;;;;;;;;;;;;;21.82;41.38;100183.67;1438270;89;20303;-79
2022/07/10 07:03:52;;;;;;;;;;;;;;;21.90;41.44;100179.85;1441033;90;20829;-79
2022/07/10 07:06:18;;;;;;;;;;;;;;;21.92;41.10;100177.20;1439470;90;20237;-79
2022/07/10 07:08:43;;;;;;;;;;;;;;;22.00;41.12;100170.68;1445121;90;20278;-80
2022/07/10 07:11:09;;;;;;;;;;;;;;;22.05;40.65;100178.38;1435530;90;20295;-80
2022/07/10 07:13:35;;;;;;;;;;;;;;;22.20;40.65;100171.23;1437498;90;20816;-80
2022/07/10 07:16:05;;;;;;;;;;;;;;;22.20;39.64;100174.47;1424797;90;20526;-79
2022/07/10 07:18:32;;;;;;;;;;;;;;;22.11;39.36;100174.47;1428603;90;20280;-79
2022/07/10 07:23:44;;;;;;;;;;;;;;;22.18;39.18;100168.47;1432094;89;20960;-80
2022/07/10 07:26:09;;;;;;;;;;;;;;;22.17;39.07;100166.31;1461377;89;20307;-82
2022/07/10 07:28:35;;;;;;;;;;;;;;;22.24;39.20;100168.40;1424510;91;20362;-82
2022/07/10 07:31:01;;;;;;;;;;;;;;;22.22;38.96;100167.80;1442305;89;20368;-82
2022/07/10 07:33:27;;;;;;;;;;;;;;;22.21;39.19;100163.97;1455110;89;20244;-79
2022/07/10 07:35:53;;;;;;;;;;;;;;;22.39;38.69;100163.91;1448990;89;21490;-79
2022/07/10 07:38:19;;;;;;;;;;;;;;;22.55;38.23;100166.97;1445632;89;20308;-79
2022/07/10 07:40:45;;;;;;;;;;;;;;;22.59;38.06;100157.38;1448543;89;20829;-80
2022/07/10 07:43:11;;;;;;;;;;;;;;;22.67;39.12;100162.41;1443080;89;20285;-79
2022/07/10 07:45:37;;;;;;;;;;;;;;;22.79;38.63;100163.25;1449255;89;20830;-79
2022/07/10 07:48:03;;;;;;;;;;;;;;;22.94;38.14;100161.42;1437110;89;20404;-79
2022/07/10 07:50:34;;;;;;;;;;;;;;;22.89;37.55;100166.17;1452566;89;20517;-80
2022/07/10 07:53:01;;;;;;;;;;;;;;;22.99;37.30;100164.28;1438309;89;20292;-80
2022/07/10 07:55:28;;;;;;;;;;;;;;;22.73;36.62;100160.15;1518559;89;20351;-79
2022/07/10 07:57:56;;;;;;;;;;;;;;;23.00;37.59;100161.05;1433161;91;21125;-79
2022/07/10 08:00:26;;;;;;;;;;;;;;;22.97;37.74;100167.73;1448097;89;20592;-80
2022/07/10 08:02:55;;;;;;;;;;;;;;;22.99;37.14;100165.63;1377628;89;20407;-79
2022/07/10 08:05:25;;;;;;;;;;;;;;;23.10;37.94;100155.86;1408423;89;20802;-79
2022/07/10 08:07:55;;;;;;;;;;;;;;;23.28;38.07;100163.83;1417476;91;20355;-79
2022/07/10 08:10:22;;;;;;;;;;;;;;;23.39;37.90;100156.73;1361826;91;20266;-79
2022/07/10 08:12:48;;;;;;;;;;;;;;;23.26;36.52;100157.02;1455851;91;20347;-79
2022/07/10 08:15:16;;;;;;;;;;;;;;;23.32;36.98;100155.53;1349081;92;20221;-78
2022/07/10 08:17:42;;;;;;;;;;;;;;;23.42;36.38;100151.70;1473424;91;20838;-79
2022/07/10 08:20:10;;;;;;;;;;;;;;;23.54;36.10;100148.16;1518545;91;20764;-80
2022/07/10 08:22:40;;;;;;;;;;;;;;;23.54;36.57;100144.92;1516977;91;20236;-79
2022/07/10 08:25:07;;;;;;;;;;;;;;;23.73;36.51;100139.35;1395466;92;20355;-78
2022/07/10 08:27:33;;;;;;;;;;;;;;;23.78;36.14;100139.45;1349388;92;20296;-79
2022/07/10 08:29:59;;;;;;;;;;;;;;;23.61;35.81;100132.61;1440949;92;20250;-79
2022/07/10 08:32:26;;;;;;;;;;;;;;;23.42;35.77;100134.16;1350102;92;20244;-79
2022/07/10 08:34:52;;;;;;;;;;;;;;;23.65;36.53;100122.98;1488820;91;20244;-83
2022/07/10 08:37:19;;;;;;;;;;;;;;;23.81;36.17;100129.51;1381671;91;20787;-80
2022/07/10 08:39:46;;;;;;;;;;;;;;;24.02;35.89;100117.17;1499068;92;20311;-81
2022/07/10 08:42:12;;;;;;;;;;;;;;;24.26;36.11;100124.09;1431645;91;20787;-81
2022/07/10 08:44:38;;;;;;;;;;;;;;;24.36;35.55;100117.20;1349951;91;20244;-81
2022/07/10 08:47:04;;;;;;;;;;;;;;;24.32;35.85;100121.75;1419685;91;20245;-81
2022/07/10 08:49:31;;;;;;;;;;;;;;;24.43;33.95;100120.61;1378672;90;20332;-81
2022/07/10 08:52:06;;;;;;;;;;;;;;;24.35;32.58;100119.09;1367232;90;20256;-81
2022/07/10 08:54:33;;;;;;;;;;;;;;;24.37;33.11;100116.13;1353014;89;20259;-80
2022/07/10 08:57:01;;;;;;;;;;;;;;;24.46;32.79;100114.70;1352277;90;20251;-80
2022/07/10 08:59:28;;;;;;;;;;;;;;;24.68;33.98;100110.69;1353755;89;20757;-81
2022/07/10 09:01:55;;;;;;;;;;;;;;;24.71;33.56;100109.65;1355877;92;20236;-81
2022/07/10 09:04:25;;;;;;;;;;;;;;;24.64;33.28;100114.43;1396297;90;20383;-81
2022/07/10 09:06:52;;;;;;;;;;;;;;;24.78;33.48;100108.14;1462012;90;20345;-81
2022/07/10 09:09:19;;;;;;;;;;;;;;;24.79;32.84;100102.19;1358363;91;20325;-81
2022/07/10 09:11:46;;;;;;;;;;;;;;;25.05;32.59;100108.23;1458515;90;20219;-81
2022/07/10 09:14:14;;;;;;;;;;;;;;;25.31;31.86;100101.81;1359302;92;20786;-81
2022/07/10 09:16:42;;;;;;;;;;;;;;;25.52;32.87;100098.78;1510610;90;20337;-83
2022/07/10 09:19:23;;;;;;;;;;;;;;;25.45;31.09;100108.48;1433326;90;20382;-83
2022/07/10 09:21:52;;;;;;;;;;;;;;;25.47;31.65;100089.27;1433263;90;20391;-85
2022/07/10 09:24:23;;;;;;;;;;;;;;;25.66;32.89;100093.25;1425933;90;20821;-84
2022/07/10 09:26:49;;;;;;;;;;;;;;;25.81;31.45;100084.48;1441984;90;20794;-82
2022/07/10 09:29:15;;;;;;;;;;;;;;;25.89;31.06;100078.59;1417721;90;20302;-83
2022/07/10 09:31:56;;;;;;;;;;;;;;;25.83;31.92;100089.11;1428473;90;20244;-82
2022/07/10 09:34:43;;;;;;;;;;;;;;;25.55;31.66;100084.22;1416786;90;20271;-82
2022/07/10 09:37:29;;;;;;;;;;;;;;;25.44;33.51;100086.53;1420695;90;20451;-82
2022/07/10 09:40:04;;;;;;;;;;;;;;;25.68;31.74;100074.04;1437472;89;20392;-81
2022/07/10 09:42:33;;;;;;;;;;;;;;;25.86;31.31;100068.27;1437868;90;20249;-81
2022/07/10 09:45:16;;;;;;;;;;;;;;;25.86;31.23;100065.55;1444376;90;20316;-81
2022/07/10 09:47:44;;;;;;;;;;;;;;;26.01;31.43;100075.20;1428301;90;20238;-81
2022/07/10 09:50:25;;;;;;;;;;;;;;;26.16;30.77;100060.13;1423233;90;20392;-81
2022/07/10 09:52:53;;;;;;;;;;;;;;;26.00;29.25;100064.05;1424729;90;20817;-82
2022/07/10 09:55:26;;;;;;;;;;;;;;;26.14;28.76;100067.16;1428261;90;20296;-81
2022/07/10 09:58:00;;;;;;;;;;;;;;;26.52;29.90;100065.28;1432421;90;20868;-81
2022/07/10 10:00:28;;;;;;;;;;;;;;;27.01;29.88;100056.30;1432207;90;20314;-82
2022/07/10 10:02:57;;;;;;;;;;;;;;;27.17;28.27;100046.90;1430602;90;20257;-83
2022/07/10 10:05:26;;;;;;;;;;;;;;;26.62;28.41;100048.26;1430011;90;20962;-83
2022/07/10 10:07:53;;;;;;;;;;;;;;;26.53;30.45;100054.17;1433261;90;20404;-82
2022/07/10 10:10:20;;;;;;;;;;;;;;;26.48;30.08;100045.97;1429354;90;20329;-82
2022/07/10 10:12:49;;;;;;;;;;;;;;;26.84;29.85;100046.17;1420335;90;20288;-82
2022/07/10 10:15:16;;;;;;;;;;;;;;;26.85;28.54;100042.95;1418602;90;20296;-82
2022/07/10 10:17:42;;;;;;;;;;;;;;;26.82;29.69;100045.64;1424540;90;20370;-82
2022/07/10 10:22:55;;;;;;;;;;;;;;;26.31;28.84;100041.25;1429619;90;20853;-82
2022/07/10 10:25:23;;;;;;;;;;;;;;;26.45;30.33;100048.39;1441997;90;20287;-82
2022/07/10 10:27:50;;;;;;;;;;;;;;;26.56;30.63;100050.13;1430836;91;20882;-82
2022/07/10 10:30:16;;;;;;;;;;;;;;;26.88;29.46;100043.77;1427853;91;20528;-81
2022/07/10 10:32:41;;;;;;;;;;;;;;;27.23;28.91;100037.13;1415179;91;20357;-81
2022/07/10 10:35:11;;;;;;;;;;;;;;;27.35;29.93;100038.25;1417850;91;20273;-82
2022/07/10 10:37:39;;;;;;;;;;;;;;;26.82;29.78;100040.22;1418913;91;20445;-83
2022/07/10 10:40:07;;;;;;;;;;;;;;;26.69;30.08;100043.40;1417271;91;20302;-83
2022/07/10 10:42:42;;;;;;;;;;;;;;;26.33;30.18;100043.98;1375944;91;20292;-83
2022/07/10 10:45:42;;;;;;;;;;;;;;;26.05;30.22;100040.24;1420316;91;20413;-82
2022/07/10 10:48:14;;;;;;;;;;;;;;;25.93;30.59;100040.42;1406537;91;21275;-83
2022/07/10 10:50:51;;;;;;;;;;;;;;;25.63;31.22;100051.22;1423006;91;21040;-83
2022/07/10 10:53:19;;;;;;;;;;;;;;;25.35;33.57;100046.08;1406513;91;20317;-82
2022/07/10 10:56:04;;;;;;;;;;;;;;;25.01;34.14;100048.90;1413089;90;20266;-82
2022/07/10 10:58:38;;;;;;;;;;;;;;;24.69;34.70;100052.28;1346627;91;21174;-83
2022/07/10 11:01:05;;;;;;;;;;;;;;;24.28;34.56;100046.26;1492949;91;20246;-83
2022/07/10 11:03:31;;;;;;;;;;;;;;;24.31;33.38;100048.47;1422273;91;20300;-82
2022/07/10 11:05:57;;;;;;;;;;;;;;;24.60;33.37;100045.66;1488634;91;20381;-83
2022/07/10 11:08:40;;;;;;;;;;;;;;;24.57;32.08;100048.03;1367957;91;20310;-82
2022/07/10 11:11:34;;;;;;;;;;;;;;;24.53;32.17;100035.55;1502171;91;21128;-82
2022/07/10 11:14:01;;;;;;;;;;;;;;;24.31;31.86;100040.86;1486059;91;20876;-82
2022/07/10 11:16:29;;;;;;;;;;;;;;;24.00;32.65;100043.64;1429272;90;20251;-82
2022/07/10 11:18:55;;;;;;;;;;;;;;;23.80;33.42;100044.93;1363872;92;20328;-82
2022/07/10 11:21:24;;;;;;;;;;;;;;;23.54;33.12;100045.52;1433386;91;20320;-82
2022/07/10 11:24:05;;;;;;;;;;;;;;;23.54;33.92;100052.27;1416011;91;21634;-83
2022/07/10 11:26:53;;;;;;;;;;;;;;;23.21;34.40;100065.94;1424211;91;21440;-82
2022/07/10 11:29:19;;;;;;;;;;;;;;;22.87;35.04;100065.77;1421918;91;20994;-83
2022/07/10 11:31:53;;;;;;;;;;;;;;;22.03;40.36;100111.75;1409323;91;20324;-82
2022/07/10 11:34:21;;;;;;;;;;;;;;;21.18;43.13;100099.20;1419777;91;20368;-83
2022/07/10 11:36:47;;;;;;;;;;;;;;;20.85;43.93;100109.50;1423366;91;20421;-82
2022/07/10 11:39:13;;;;;;;;;;;;;;;20.04;46.73;100131.34;1416152;91;20453;-82
2022/07/10 11:41:45;;;;;;;;;;;;;;;19.83;48.29;100140.05;1411529;91;20325;-82
2022/07/10 11:44:20;;;;;;;;;;;;;;;19.43;51.60;100139.91;1425251;91;20312;-83
2022/07/10 11:46:48;;;;;;;;;;;;;;;18.95;56.81;100150.45;1415625;91;20317;-84
2022/07/10 11:49:14;;;;;;;;;;;;;;;18.40;63.55;100152.52;1410614;91;20327;-84
2022/07/10 11:51:41;;;;;;;;;;;;;;;17.94;65.55;100142.05;1426029;91;20310;-84
2022/07/10 11:54:15;;;;;;;;;;;;;;;17.90;68.14;100142.16;1406422;91;20335;-83
2022/07/10 11:56:43;;;;;;;;;;;;;;;17.73;65.60;100143.52;1407205;91;20920;-84
2022/07/10 11:59:11;;;;;;;;;;;;;;;17.56;66.25;100151.89;1420075;91;20370;-83
2022/07/10 12:01:45;;;;;;;;;;;;;;;17.56;70.28;100161.77;1393706;91;20237;-83
2022/07/10 12:04:12;;;;;;;;;;;;;;;17.50;68.02;100162.06;1340071;93;20939;-82
2022/07/10 12:06:40;;;;;;;;;;;;;;;17.49;71.14;100165.77;1485121;91;20408;-82
2022/07/10 12:09:08;;;;;;;;;;;;;;;17.28;69.26;100169.34;1354948;91;20892;-83
2022/07/10 12:11:35;;;;;;;;;;;;;;;17.20;69.50;100174.03;1495314;91;21417;-82
2022/07/10 12:14:22;;;;;;;;;;;;;;;16.96;69.65;100174.81;1378971;91;20281;-83
2022/07/10 12:16:55;;;;;;;;;;;;;;;16.88;73.58;100178.97;1491161;90;20857;-83
2022/07/10 12:19:27;;;;;;;;;;;;;;;16.82;72.91;100186.43;1449881;91;20868;-83
2022/07/10 12:21:54;;;;;;;;;;;;;;;16.81;73.00;100187.46;1507098;91;20245;-83
2022/07/10 12:24:20;;;;;;;;;;;;;;;16.67;72.50;100188.66;1352514;91;20258;-83
2022/07/10 12:26:47;;;;;;;;;;;;;;;16.73;72.35;100186.23;1390760;91;20970;-83
2022/07/10 12:29:22;;;;;;;;;;;;;;;16.68;71.18;100183.61;1391025;89;20301;-83
2022/07/10 12:31:50;;;;;;;;;;;;;;;16.63;70.16;100187.40;1523471;90;20250;-83
2022/07/10 12:34:16;;;;;;;;;;;;;;;16.50;69.48;100195.29;1537052;89;20234;-82
2022/07/10 12:36:53;;;;;;;;;;;;;;;16.49;69.72;100209.67;1470458;89;20317;-82
2022/07/10 12:39:24;;;;;;;;;;;;;;;16.47;69.33;100217.86;1458250;89;20355;-83
2022/07/10 12:42:04;;;;;;;;;;;;;;;16.49;68.67;100224.36;1522888;89;20289;-83
2022/07/10 12:44:47;;;;;;;;;;;;;;;16.56;68.48;100229.76;1481809;89;20957;-82
2022/07/10 12:47:18;;;;;;;;;;;;;;;16.58;70.27;100237.91;1515932;89;20233;-82
2022/07/10 12:50:04;;;;;;;;;;;;;;;16.72;70.93;100254.89;1375974;89;20258;-82